sensor_id;sensor_type;location;lat;lon;timestamp;P1;durP1;ratioP1;P2;durP2;ratioP2
40745;SDS011;26454;51.164;4.488;2023-04-25T00:00:04;15.20;;;6.15;;
40745;SDS011;26454;51.164;4.488;2023-04-25T00:02:32;16.40;;;5.70;;
40745;SDS011;26454;51.164;4.488;2023-04-25T00:05:00;24.52;;;6.45;;
40745;SDS011;26454;51.164;4.488;2023-04-25T00:07:26;19.65;;;6.45;;
40745;SDS011;26454;51.164;4.488;2023-04-25T00:09:53;18.13;;;6.28;;
40745;SDS011;26454;51.164;4.488;2023-04-25T00:12:19;25.25;;;8.05;;
40745;SDS011;26454;51.164;4.488;2023-04-25T00:14:48;22.70;;;6.13;;
40745;SDS011;26454;51.164;4.488;2023-04-25T00:17:16;22.45;;;6.35;;
40745;SDS011;26454;51.164;4.488;2023-04-25T00:19:42;22.35;;;7.47;;
40745;SDS011;26454;51.164;4.488;2023-04-25T00:22:11;17.92;;;5.90;;
40745;SDS011;26454;51.164;4.488;2023-04-25T00:24:37;25.48;;;6.63;;
40745;SDS011;26454;51.164;4.488;2023-04-25T00:27:03;22.58;;;5.95;;
40745;SDS011;26454;51.164;4.488;2023-04-25T00:29:29;21.70;;;6.93;;
40745;SDS011;26454;51.164;4.488;2023-04-25T00:31:55;22.27;;;5.95;;
40745;SDS011;26454;51.164;4.488;2023-04-25T00:34:21;13.73;;;5.72;;
40745;SDS011;26454;51.164;4.488;2023-04-25T00:36:47;19.58;;;5.78;;
40745;SDS011;26454;51.164;4.488;2023-04-25T00:39:13;16.95;;;5.43;;
40745;SDS011;26454;51.164;4.488;2023-04-25T00:41:39;14.82;;;5.57;;
40745;SDS011;26454;51.164;4.488;2023-04-25T00:44:05;16.63;;;6.05;;
40745;SDS011;26454;51.164;4.488;2023-04-25T00:46:32;17.55;;;5.20;;
40745;SDS011;26454;51.164;4.488;2023-04-25T00:48:58;19.88;;;6.88;;
40745;SDS011;26454;51.164;4.488;2023-04-25T00:51:24;13.00;;;4.55;;
40745;SDS011;26454;51.164;4.488;2023-04-25T00:53:52;21.75;;;6.03;;
40745;SDS011;26454;51.164;4.488;2023-04-25T00:56:19;19.55;;;5.85;;
40745;SDS011;26454;51.164;4.488;2023-04-25T00:58:45;28.85;;;5.70;;
40745;SDS011;26454;51.164;4.488;2023-04-25T01:01:11;18.17;;;5.75;;
40745;SDS011;26454;51.164;4.488;2023-04-25T01:03:38;17.30;;;6.43;;
40745;SDS011;26454;51.164;4.488;2023-04-25T01:06:07;18.58;;;6.07;;
40745;SDS011;26454;51.164;4.488;2023-04-25T01:08:38;18.10;;;7.07;;
40745;SDS011;26454;51.164;4.488;2023-04-25T01:11:04;23.23;;;6.72;;
40745;SDS011;26454;51.164;4.488;2023-04-25T01:13:31;17.25;;;6.45;;
40745;SDS011;26454;51.164;4.488;2023-04-25T01:15:59;18.05;;;7.28;;
40745;SDS011;26454;51.164;4.488;2023-04-25T01:18:26;20.75;;;5.93;;
40745;SDS011;26454;51.164;4.488;2023-04-25T01:20:52;22.23;;;5.68;;
40745;SDS011;26454;51.164;4.488;2023-04-25T01:23:19;18.85;;;5.85;;
40745;SDS011;26454;51.164;4.488;2023-04-25T01:25:51;27.92;;;7.25;;
40745;SDS011;26454;51.164;4.488;2023-04-25T01:28:19;14.52;;;6.25;;
40745;SDS011;26454;51.164;4.488;2023-04-25T01:30:45;21.17;;;6.38;;
40745;SDS011;26454;51.164;4.488;2023-04-25T01:33:12;20.00;;;7.97;;
40745;SDS011;26454;51.164;4.488;2023-04-25T01:35:39;24.05;;;7.18;;
40745;SDS011;26454;51.164;4.488;2023-04-25T01:38:06;17.33;;;6.72;;
40745;SDS011;26454;51.164;4.488;2023-04-25T01:40:32;21.60;;;7.05;;
40745;SDS011;26454;51.164;4.488;2023-04-25T01:42:59;14.95;;;5.82;;
40745;SDS011;26454;51.164;4.488;2023-04-25T01:45:26;23.67;;;6.65;;
40745;SDS011;26454;51.164;4.488;2023-04-25T01:47:52;23.40;;;8.55;;
40745;SDS011;26454;51.164;4.488;2023-04-25T01:50:19;16.58;;;5.97;;
40745;SDS011;26454;51.164;4.488;2023-04-25T01:52:45;16.20;;;7.50;;
40745;SDS011;26454;51.164;4.488;2023-04-25T01:55:11;19.17;;;7.65;;
40745;SDS011;26454;51.164;4.488;2023-04-25T01:57:39;25.40;;;7.65;;
40745;SDS011;26454;51.164;4.488;2023-04-25T02:00:05;25.60;;;6.55;;
40745;SDS011;26454;51.164;4.488;2023-04-25T02:02:33;20.73;;;7.47;;
40745;SDS011;26454;51.164;4.488;2023-04-25T02:04:59;20.58;;;6.40;;
40745;SDS011;26454;51.164;4.488;2023-04-25T02:07:25;25.70;;;7.57;;
40745;SDS011;26454;51.164;4.488;2023-04-25T02:09:52;16.33;;;6.68;;
40745;SDS011;26454;51.164;4.488;2023-04-25T02:12:18;29.27;;;7.72;;
40745;SDS011;26454;51.164;4.488;2023-04-25T02:14:45;16.52;;;7.40;;
40745;SDS011;26454;51.164;4.488;2023-04-25T02:17:12;26.75;;;8.05;;
40745;SDS011;26454;51.164;4.488;2023-04-25T02:19:39;20.50;;;8.18;;
40745;SDS011;26454;51.164;4.488;2023-04-25T02:22:05;19.40;;;6.35;;
40745;SDS011;26454;51.164;4.488;2023-04-25T02:24:32;20.55;;;6.90;;
40745;SDS011;26454;51.164;4.488;2023-04-25T02:27:00;25.40;;;5.63;;
40745;SDS011;26454;51.164;4.488;2023-04-25T02:29:26;24.75;;;7.53;;
40745;SDS011;26454;51.164;4.488;2023-04-25T02:32:03;28.02;;;7.40;;
40745;SDS011;26454;51.164;4.488;2023-04-25T02:34:32;35.00;;;8.57;;
40745;SDS011;26454;51.164;4.488;2023-04-25T02:36:58;17.95;;;7.93;;
40745;SDS011;26454;51.164;4.488;2023-04-25T02:39:24;29.08;;;10.15;;
40745;SDS011;26454;51.164;4.488;2023-04-25T02:41:52;32.22;;;8.93;;
40745;SDS011;26454;51.164;4.488;2023-04-25T02:44:18;26.58;;;8.18;;
40745;SDS011;26454;51.164;4.488;2023-04-25T02:46:45;26.85;;;8.15;;
40745;SDS011;26454;51.164;4.488;2023-04-25T02:49:11;24.27;;;7.13;;
40745;SDS011;26454;51.164;4.488;2023-04-25T02:51:37;23.13;;;9.05;;
40745;SDS011;26454;51.164;4.488;2023-04-25T02:54:03;24.05;;;8.52;;
40745;SDS011;26454;51.164;4.488;2023-04-25T02:56:29;24.77;;;9.70;;
40745;SDS011;26454;51.164;4.488;2023-04-25T02:58:55;20.08;;;9.07;;
40745;SDS011;26454;51.164;4.488;2023-04-25T03:01:21;20.77;;;9.73;;
40745;SDS011;26454;51.164;4.488;2023-04-25T03:03:51;22.77;;;9.85;;
40745;SDS011;26454;51.164;4.488;2023-04-25T03:06:17;24.63;;;8.85;;
40745;SDS011;26454;51.164;4.488;2023-04-25T03:08:44;20.95;;;7.35;;
40745;SDS011;26454;51.164;4.488;2023-04-25T03:11:10;33.60;;;10.98;;
40745;SDS011;26454;51.164;4.488;2023-04-25T03:13:37;22.08;;;9.13;;
40745;SDS011;26454;51.164;4.488;2023-04-25T03:16:04;28.90;;;9.75;;
40745;SDS011;26454;51.164;4.488;2023-04-25T03:18:30;18.92;;;9.13;;
40745;SDS011;26454;51.164;4.488;2023-04-25T03:20:56;24.42;;;10.57;;
40745;SDS011;26454;51.164;4.488;2023-04-25T03:23:23;23.10;;;10.43;;
40745;SDS011;26454;51.164;4.488;2023-04-25T03:25:50;28.23;;;10.75;;
40745;SDS011;26454;51.164;4.488;2023-04-25T03:28:17;20.10;;;9.18;;
40745;SDS011;26454;51.164;4.488;2023-04-25T03:30:46;26.40;;;10.43;;
40745;SDS011;26454;51.164;4.488;2023-04-25T03:33:12;23.23;;;9.75;;
40745;SDS011;26454;51.164;4.488;2023-04-25T03:35:38;27.88;;;11.10;;
40745;SDS011;26454;51.164;4.488;2023-04-25T03:38:04;18.60;;;8.82;;
40745;SDS011;26454;51.164;4.488;2023-04-25T03:40:30;28.48;;;10.80;;
40745;SDS011;26454;51.164;4.488;2023-04-25T03:42:58;19.60;;;9.15;;
40745;SDS011;26454;51.164;4.488;2023-04-25T03:45:25;21.98;;;9.80;;
40745;SDS011;26454;51.164;4.488;2023-04-25T03:47:51;22.73;;;10.15;;
40745;SDS011;26454;51.164;4.488;2023-04-25T03:50:17;29.02;;;10.75;;
40745;SDS011;26454;51.164;4.488;2023-04-25T03:52:43;28.67;;;10.30;;
40745;SDS011;26454;51.164;4.488;2023-04-25T03:55:09;29.30;;;9.23;;
40745;SDS011;26454;51.164;4.488;2023-04-25T03:57:35;29.63;;;11.73;;
40745;SDS011;26454;51.164;4.488;2023-04-25T04:00:02;24.92;;;9.57;;
40745;SDS011;26454;51.164;4.488;2023-04-25T04:02:31;31.58;;;9.85;;
40745;SDS011;26454;51.164;4.488;2023-04-25T04:04:59;25.30;;;8.77;;
40745;SDS011;26454;51.164;4.488;2023-04-25T04:07:26;23.75;;;8.52;;
40745;SDS011;26454;51.164;4.488;2023-04-25T04:09:52;21.17;;;8.77;;
40745;SDS011;26454;51.164;4.488;2023-04-25T04:12:18;24.67;;;9.23;;
40745;SDS011;26454;51.164;4.488;2023-04-25T04:14:46;25.77;;;8.63;;
40745;SDS011;26454;51.164;4.488;2023-04-25T04:17:12;31.23;;;9.18;;
40745;SDS011;26454;51.164;4.488;2023-04-25T04:19:42;21.75;;;7.55;;
40745;SDS011;26454;51.164;4.488;2023-04-25T04:22:09;23.90;;;8.05;;
40745;SDS011;26454;51.164;4.488;2023-04-25T04:24:35;27.95;;;9.52;;
40745;SDS011;26454;51.164;4.488;2023-04-25T04:27:03;15.90;;;7.07;;
40745;SDS011;26454;51.164;4.488;2023-04-25T04:29:30;25.77;;;9.20;;
40745;SDS011;26454;51.164;4.488;2023-04-25T04:31:57;19.63;;;6.82;;
40745;SDS011;26454;51.164;4.488;2023-04-25T04:34:26;20.20;;;7.25;;
40745;SDS011;26454;51.164;4.488;2023-04-25T04:36:52;19.38;;;7.57;;
40745;SDS011;26454;51.164;4.488;2023-04-25T04:39:18;16.50;;;7.45;;
40745;SDS011;26454;51.164;4.488;2023-04-25T04:41:48;18.13;;;7.15;;
40745;SDS011;26454;51.164;4.488;2023-04-25T04:44:14;23.00;;;8.57;;
40745;SDS011;26454;51.164;4.488;2023-04-25T04:46:41;14.70;;;6.35;;
40745;SDS011;26454;51.164;4.488;2023-04-25T04:49:08;16.65;;;7.22;;
40745;SDS011;26454;51.164;4.488;2023-04-25T04:51:35;15.02;;;7.03;;
40745;SDS011;26454;51.164;4.488;2023-04-25T04:54:02;18.85;;;8.20;;
40745;SDS011;26454;51.164;4.488;2023-04-25T04:56:31;20.13;;;7.22;;
40745;SDS011;26454;51.164;4.488;2023-04-25T04:58:57;17.57;;;6.83;;
40745;SDS011;26454;51.164;4.488;2023-04-25T05:01:33;19.83;;;6.80;;
40745;SDS011;26454;51.164;4.488;2023-04-25T05:04:01;17.38;;;7.93;;
40745;SDS011;26454;51.164;4.488;2023-04-25T05:06:28;19.02;;;7.35;;
40745;SDS011;26454;51.164;4.488;2023-04-25T05:08:55;19.02;;;7.70;;
40745;SDS011;26454;51.164;4.488;2023-04-25T05:11:22;23.52;;;7.63;;
40745;SDS011;26454;51.164;4.488;2023-04-25T05:13:49;17.98;;;7.45;;
40745;SDS011;26454;51.164;4.488;2023-04-25T05:16:15;16.73;;;6.20;;
40745;SDS011;26454;51.164;4.488;2023-04-25T05:18:41;20.23;;;7.13;;
40745;SDS011;26454;51.164;4.488;2023-04-25T05:21:09;18.58;;;7.05;;
40745;SDS011;26454;51.164;4.488;2023-04-25T05:23:35;14.40;;;6.88;;
40745;SDS011;26454;51.164;4.488;2023-04-25T05:26:03;16.73;;;7.32;;
40745;SDS011;26454;51.164;4.488;2023-04-25T05:28:31;18.65;;;7.22;;
40745;SDS011;26454;51.164;4.488;2023-04-25T05:30:57;18.10;;;7.15;;
40745;SDS011;26454;51.164;4.488;2023-04-25T05:33:28;17.63;;;7.18;;
40745;SDS011;26454;51.164;4.488;2023-04-25T05:35:54;18.52;;;7.53;;
40745;SDS011;26454;51.164;4.488;2023-04-25T05:38:20;21.27;;;6.53;;
40745;SDS011;26454;51.164;4.488;2023-04-25T05:40:47;17.80;;;7.40;;
40745;SDS011;26454;51.164;4.488;2023-04-25T05:43:13;12.38;;;6.15;;
40745;SDS011;26454;51.164;4.488;2023-04-25T05:45:40;19.67;;;5.70;;
40745;SDS011;26454;51.164;4.488;2023-04-25T05:48:06;23.75;;;5.93;;
40745;SDS011;26454;51.164;4.488;2023-04-25T05:50:32;18.77;;;6.03;;
40745;SDS011;26454;51.164;4.488;2023-04-25T05:52:58;19.95;;;6.93;;
40745;SDS011;26454;51.164;4.488;2023-04-25T05:55:26;17.30;;;6.85;;
40745;SDS011;26454;51.164;4.488;2023-04-25T05:57:52;16.38;;;6.78;;
40745;SDS011;26454;51.164;4.488;2023-04-25T06:00:19;18.35;;;7.57;;
40745;SDS011;26454;51.164;4.488;2023-04-25T06:02:47;15.02;;;5.75;;
40745;SDS011;26454;51.164;4.488;2023-04-25T06:05:14;19.15;;;6.43;;
40745;SDS011;26454;51.164;4.488;2023-04-25T06:07:40;13.07;;;5.90;;
40745;SDS011;26454;51.164;4.488;2023-04-25T06:10:06;19.13;;;7.63;;
40745;SDS011;26454;51.164;4.488;2023-04-25T06:12:34;17.45;;;6.63;;
40745;SDS011;26454;51.164;4.488;2023-04-25T06:15:04;19.50;;;6.55;;
40745;SDS011;26454;51.164;4.488;2023-04-25T06:17:30;15.77;;;5.72;;
40745;SDS011;26454;51.164;4.488;2023-04-25T06:19:56;12.30;;;5.30;;
40745;SDS011;26454;51.164;4.488;2023-04-25T06:22:22;25.38;;;5.80;;
40745;SDS011;26454;51.164;4.488;2023-04-25T06:24:49;12.93;;;4.95;;
40745;SDS011;26454;51.164;4.488;2023-04-25T06:27:15;13.65;;;5.57;;
40745;SDS011;26454;51.164;4.488;2023-04-25T06:29:41;21.13;;;5.85;;
40745;SDS011;26454;51.164;4.488;2023-04-25T06:32:07;14.15;;;4.88;;
40745;SDS011;26454;51.164;4.488;2023-04-25T06:34:33;24.85;;;5.47;;
40745;SDS011;26454;51.164;4.488;2023-04-25T06:36:59;13.55;;;4.55;;
40745;SDS011;26454;51.164;4.488;2023-04-25T06:39:27;14.10;;;4.57;;
40745;SDS011;26454;51.164;4.488;2023-04-25T06:41:53;17.05;;;4.38;;
40745;SDS011;26454;51.164;4.488;2023-04-25T06:44:20;18.08;;;3.60;;
40745;SDS011;26454;51.164;4.488;2023-04-25T06:46:48;19.98;;;4.70;;
40745;SDS011;26454;51.164;4.488;2023-04-25T06:49:15;11.55;;;4.13;;
40745;SDS011;26454;51.164;4.488;2023-04-25T06:51:51;19.88;;;4.15;;
40745;SDS011;26454;51.164;4.488;2023-04-25T06:54:19;5.95;;;3.78;;
40745;SDS011;26454;51.164;4.488;2023-04-25T06:56:45;9.80;;;4.50;;
40745;SDS011;26454;51.164;4.488;2023-04-25T06:59:11;13.68;;;4.60;;
40745;SDS011;26454;51.164;4.488;2023-04-25T07:01:37;7.47;;;3.85;;
40745;SDS011;26454;51.164;4.488;2023-04-25T07:04:05;17.15;;;4.85;;
40745;SDS011;26454;51.164;4.488;2023-04-25T07:06:31;13.02;;;4.80;;
40745;SDS011;26454;51.164;4.488;2023-04-25T07:08:57;14.90;;;4.32;;
40745;SDS011;26454;51.164;4.488;2023-04-25T07:11:23;13.98;;;3.97;;
40745;SDS011;26454;51.164;4.488;2023-04-25T07:13:50;11.82;;;3.95;;
40745;SDS011;26454;51.164;4.488;2023-04-25T07:16:18;13.98;;;4.57;;
40745;SDS011;26454;51.164;4.488;2023-04-25T07:18:44;16.20;;;4.72;;
40745;SDS011;26454;51.164;4.488;2023-04-25T07:21:10;10.88;;;4.03;;
40745;SDS011;26454;51.164;4.488;2023-04-25T07:23:37;15.70;;;4.05;;
40745;SDS011;26454;51.164;4.488;2023-04-25T07:26:05;17.02;;;3.85;;
40745;SDS011;26454;51.164;4.488;2023-04-25T07:28:33;13.98;;;4.85;;
40745;SDS011;26454;51.164;4.488;2023-04-25T07:31:02;14.55;;;4.47;;
40745;SDS011;26454;51.164;4.488;2023-04-25T07:33:28;8.95;;;3.55;;
40745;SDS011;26454;51.164;4.488;2023-04-25T07:35:54;13.18;;;4.03;;
40745;SDS011;26454;51.164;4.488;2023-04-25T07:38:21;14.63;;;4.07;;
40745;SDS011;26454;51.164;4.488;2023-04-25T07:40:51;16.20;;;4.20;;
40745;SDS011;26454;51.164;4.488;2023-04-25T07:43:17;10.40;;;3.20;;
40745;SDS011;26454;51.164;4.488;2023-04-25T07:45:43;15.57;;;3.17;;
40745;SDS011;26454;51.164;4.488;2023-04-25T07:48:10;13.32;;;3.50;;
40745;SDS011;26454;51.164;4.488;2023-04-25T07:50:36;10.63;;;3.15;;
40745;SDS011;26454;51.164;4.488;2023-04-25T07:53:02;10.40;;;3.40;;
40745;SDS011;26454;51.164;4.488;2023-04-25T07:55:28;14.70;;;4.10;;
40745;SDS011;26454;51.164;4.488;2023-04-25T07:57:56;14.35;;;4.43;;
40745;SDS011;26454;51.164;4.488;2023-04-25T08:00:22;14.40;;;4.30;;
40745;SDS011;26454;51.164;4.488;2023-04-25T08:02:48;11.65;;;3.53;;
40745;SDS011;26454;51.164;4.488;2023-04-25T08:05:15;8.27;;;3.33;;
40745;SDS011;26454;51.164;4.488;2023-04-25T08:07:42;12.95;;;4.60;;
40745;SDS011;26454;51.164;4.488;2023-04-25T08:10:08;10.25;;;3.20;;
40745;SDS011;26454;51.164;4.488;2023-04-25T08:12:35;10.20;;;3.00;;
40745;SDS011;26454;51.164;4.488;2023-04-25T08:15:01;9.43;;;2.97;;
40745;SDS011;26454;51.164;4.488;2023-04-25T08:17:27;15.82;;;3.75;;
40745;SDS011;26454;51.164;4.488;2023-04-25T08:19:53;8.85;;;2.97;;
40745;SDS011;26454;51.164;4.488;2023-04-25T08:22:20;13.63;;;3.28;;
40745;SDS011;26454;51.164;4.488;2023-04-25T08:24:49;8.95;;;2.67;;
40745;SDS011;26454;51.164;4.488;2023-04-25T08:27:18;9.13;;;2.43;;
40745;SDS011;26454;51.164;4.488;2023-04-25T08:32:11;5.72;;;2.25;;
40745;SDS011;26454;51.164;4.488;2023-04-25T08:34:38;6.80;;;2.50;;
40745;SDS011;26454;51.164;4.488;2023-04-25T08:37:07;7.50;;;3.05;;
40745;SDS011;26454;51.164;4.488;2023-04-25T08:39:35;5.15;;;2.22;;
40745;SDS011;26454;51.164;4.488;2023-04-25T08:42:02;8.30;;;2.60;;
40745;SDS011;26454;51.164;4.488;2023-04-25T08:44:30;12.60;;;2.65;;
40745;SDS011;26454;51.164;4.488;2023-04-25T08:46:57;9.02;;;3.03;;
40745;SDS011;26454;51.164;4.488;2023-04-25T08:49:23;8.07;;;3.25;;
40745;SDS011;26454;51.164;4.488;2023-04-25T08:51:52;10.07;;;2.63;;
40745;SDS011;26454;51.164;4.488;2023-04-25T08:54:19;9.63;;;2.80;;
40745;SDS011;26454;51.164;4.488;2023-04-25T08:56:48;11.10;;;3.45;;
40745;SDS011;26454;51.164;4.488;2023-04-25T08:59:15;9.65;;;3.90;;
40745;SDS011;26454;51.164;4.488;2023-04-25T09:01:44;9.73;;;2.53;;
40745;SDS011;26454;51.164;4.488;2023-04-25T09:04:11;7.65;;;2.65;;
40745;SDS011;26454;51.164;4.488;2023-04-25T09:06:38;7.30;;;2.22;;
40745;SDS011;26454;51.164;4.488;2023-04-25T09:09:05;6.88;;;2.20;;
40745;SDS011;26454;51.164;4.488;2023-04-25T09:11:32;11.15;;;3.22;;
40745;SDS011;26454;51.164;4.488;2023-04-25T09:16:36;7.57;;;2.35;;
40745;SDS011;26454;51.164;4.488;2023-04-25T09:19:20;5.75;;;1.90;;
40745;SDS011;26454;51.164;4.488;2023-04-25T09:21:48;8.75;;;2.97;;
40745;SDS011;26454;51.164;4.488;2023-04-25T09:24:28;5.32;;;2.92;;
40745;SDS011;26454;51.164;4.488;2023-04-25T09:26:56;10.23;;;2.20;;
40745;SDS011;26454;51.164;4.488;2023-04-25T09:29:31;6.60;;;1.95;;
40745;SDS011;26454;51.164;4.488;2023-04-25T09:34:39;9.25;;;2.38;;
40745;SDS011;26454;51.164;4.488;2023-04-25T09:37:07;9.23;;;3.08;;
40745;SDS011;26454;51.164;4.488;2023-04-25T09:39:35;8.05;;;2.80;;
40745;SDS011;26454;51.164;4.488;2023-04-25T09:42:03;10.30;;;2.10;;
40745;SDS011;26454;51.164;4.488;2023-04-25T09:44:29;9.38;;;2.95;;
40745;SDS011;26454;51.164;4.488;2023-04-25T09:46:55;7.97;;;2.40;;
40745;SDS011;26454;51.164;4.488;2023-04-25T09:49:24;6.65;;;2.08;;
40745;SDS011;26454;51.164;4.488;2023-04-25T09:51:58;9.50;;;2.67;;
40745;SDS011;26454;51.164;4.488;2023-04-25T09:54:25;5.32;;;1.85;;
40745;SDS011;26454;51.164;4.488;2023-04-25T09:56:52;5.50;;;2.13;;
40745;SDS011;26454;51.164;4.488;2023-04-25T09:59:20;7.00;;;1.80;;
40745;SDS011;26454;51.164;4.488;2023-04-25T10:01:48;6.03;;;1.65;;
40745;SDS011;26454;51.164;4.488;2023-04-25T10:04:18;4.65;;;1.73;;
40745;SDS011;26454;51.164;4.488;2023-04-25T10:06:46;3.08;;;1.50;;
40745;SDS011;26454;51.164;4.488;2023-04-25T10:09:14;6.70;;;1.63;;
40745;SDS011;26454;51.164;4.488;2023-04-25T10:11:42;6.30;;;2.03;;
40745;SDS011;26454;51.164;4.488;2023-04-25T10:14:10;6.97;;;2.20;;
40745;SDS011;26454;51.164;4.488;2023-04-25T10:16:36;7.97;;;2.25;;
40745;SDS011;26454;51.164;4.488;2023-04-25T10:19:03;6.00;;;1.77;;
40745;SDS011;26454;51.164;4.488;2023-04-25T10:21:29;5.05;;;1.80;;
40745;SDS011;26454;51.164;4.488;2023-04-25T10:23:57;5.72;;;1.70;;
40745;SDS011;26454;51.164;4.488;2023-04-25T10:26:23;10.48;;;1.98;;
40745;SDS011;26454;51.164;4.488;2023-04-25T10:28:58;8.38;;;1.80;;
40745;SDS011;26454;51.164;4.488;2023-04-25T10:31:24;10.52;;;2.83;;
40745;SDS011;26454;51.164;4.488;2023-04-25T10:33:51;10.10;;;2.60;;
40745;SDS011;26454;51.164;4.488;2023-04-25T10:36:19;5.18;;;1.67;;
40745;SDS011;26454;51.164;4.488;2023-04-25T10:38:47;9.25;;;2.13;;
40745;SDS011;26454;51.164;4.488;2023-04-25T10:41:13;6.80;;;1.80;;
40745;SDS011;26454;51.164;4.488;2023-04-25T10:43:41;8.32;;;3.33;;
40745;SDS011;26454;51.164;4.488;2023-04-25T10:46:15;6.63;;;2.17;;
40745;SDS011;26454;51.164;4.488;2023-04-25T10:48:50;5.72;;;1.90;;
40745;SDS011;26454;51.164;4.488;2023-04-25T10:51:22;4.82;;;1.60;;
40745;SDS011;26454;51.164;4.488;2023-04-25T10:56:29;4.22;;;1.90;;
40745;SDS011;26454;51.164;4.488;2023-04-25T11:01:37;10.55;;;2.30;;
40745;SDS011;26454;51.164;4.488;2023-04-25T11:04:04;8.45;;;1.70;;
40745;SDS011;26454;51.164;4.488;2023-04-25T11:06:37;9.20;;;3.13;;
40745;SDS011;26454;51.164;4.488;2023-04-25T11:09:10;5.68;;;1.65;;
40745;SDS011;26454;51.164;4.488;2023-04-25T11:11:41;5.13;;;2.35;;
40745;SDS011;26454;51.164;4.488;2023-04-25T11:14:08;4.30;;;1.50;;
40745;SDS011;26454;51.164;4.488;2023-04-25T11:16:35;4.47;;;1.52;;
40745;SDS011;26454;51.164;4.488;2023-04-25T11:19:01;3.85;;;1.80;;
40745;SDS011;26454;51.164;4.488;2023-04-25T11:21:28;3.85;;;1.67;;
40745;SDS011;26454;51.164;4.488;2023-04-25T11:23:56;4.35;;;2.05;;
40745;SDS011;26454;51.164;4.488;2023-04-25T11:26:24;4.47;;;1.77;;
40745;SDS011;26454;51.164;4.488;2023-04-25T11:28:50;5.28;;;1.60;;
40745;SDS011;26454;51.164;4.488;2023-04-25T11:31:19;3.45;;;1.60;;
40745;SDS011;26454;51.164;4.488;2023-04-25T11:33:46;4.28;;;1.23;;
40745;SDS011;26454;51.164;4.488;2023-04-25T11:36:12;3.05;;;1.35;;
40745;SDS011;26454;51.164;4.488;2023-04-25T11:38:38;3.85;;;1.20;;
40745;SDS011;26454;51.164;4.488;2023-04-25T11:41:05;8.10;;;1.35;;
40745;SDS011;26454;51.164;4.488;2023-04-25T11:43:31;2.00;;;1.08;;
40745;SDS011;26454;51.164;4.488;2023-04-25T11:45:57;11.18;;;2.33;;
40745;SDS011;26454;51.164;4.488;2023-04-25T11:48:23;4.45;;;1.38;;
40745;SDS011;26454;51.164;4.488;2023-04-25T11:50:49;2.55;;;1.33;;
40745;SDS011;26454;51.164;4.488;2023-04-25T11:53:18;1.35;;;0.90;;
40745;SDS011;26454;51.164;4.488;2023-04-25T11:55:44;2.45;;;1.10;;
40745;SDS011;26454;51.164;4.488;2023-04-25T11:58:10;3.17;;;1.00;;
40745;SDS011;26454;51.164;4.488;2023-04-25T12:00:38;5.68;;;1.45;;
40745;SDS011;26454;51.164;4.488;2023-04-25T12:03:08;10.85;;;2.25;;
40745;SDS011;26454;51.164;4.488;2023-04-25T12:05:34;5.65;;;1.58;;
40745;SDS011;26454;51.164;4.488;2023-04-25T12:08:10;3.22;;;1.35;;
40745;SDS011;26454;51.164;4.488;2023-04-25T12:10:37;7.40;;;1.80;;
40745;SDS011;26454;51.164;4.488;2023-04-25T12:15:41;4.80;;;1.60;;
40745;SDS011;26454;51.164;4.488;2023-04-25T12:18:19;3.95;;;1.65;;
40745;SDS011;26454;51.164;4.488;2023-04-25T12:20:46;5.30;;;1.45;;
40745;SDS011;26454;51.164;4.488;2023-04-25T12:23:24;5.30;;;1.48;;
40745;SDS011;26454;51.164;4.488;2023-04-25T12:25:52;2.70;;;1.38;;
40745;SDS011;26454;51.164;4.488;2023-04-25T12:28:19;5.70;;;1.42;;
40745;SDS011;26454;51.164;4.488;2023-04-25T12:33:43;5.40;;;1.52;;
40745;SDS011;26454;51.164;4.488;2023-04-25T12:36:15;7.50;;;1.47;;
40745;SDS011;26454;51.164;4.488;2023-04-25T12:38:45;4.13;;;1.38;;
40745;SDS011;26454;51.164;4.488;2023-04-25T12:41:14;6.18;;;1.48;;
40745;SDS011;26454;51.164;4.488;2023-04-25T12:43:40;2.55;;;1.08;;
40745;SDS011;26454;51.164;4.488;2023-04-25T12:46:07;5.53;;;1.50;;
40745;SDS011;26454;51.164;4.488;2023-04-25T12:48:33;3.80;;;1.20;;
40745;SDS011;26454;51.164;4.488;2023-04-25T12:50:59;1.65;;;1.10;;
40745;SDS011;26454;51.164;4.488;2023-04-25T12:53:26;5.25;;;1.42;;
40745;SDS011;26454;51.164;4.488;2023-04-25T12:55:53;5.65;;;1.40;;
40745;SDS011;26454;51.164;4.488;2023-04-25T12:58:19;4.82;;;1.42;;
40745;SDS011;26454;51.164;4.488;2023-04-25T13:00:48;3.17;;;1.50;;
40745;SDS011;26454;51.164;4.488;2023-04-25T13:03:14;2.63;;;1.10;;
40745;SDS011;26454;51.164;4.488;2023-04-25T13:05:44;4.00;;;1.40;;
40745;SDS011;26454;51.164;4.488;2023-04-25T13:08:17;4.95;;;1.30;;
40745;SDS011;26454;51.164;4.488;2023-04-25T13:10:47;4.18;;;1.75;;
40745;SDS011;26454;51.164;4.488;2023-04-25T13:13:13;6.13;;;2.00;;
40745;SDS011;26454;51.164;4.488;2023-04-25T13:15:40;3.95;;;1.73;;
40745;SDS011;26454;51.164;4.488;2023-04-25T13:18:07;5.75;;;1.77;;
40745;SDS011;26454;51.164;4.488;2023-04-25T13:20:33;5.47;;;1.85;;
40745;SDS011;26454;51.164;4.488;2023-04-25T13:23:00;9.50;;;2.22;;
40745;SDS011;26454;51.164;4.488;2023-04-25T13:25:26;3.90;;;1.65;;
40745;SDS011;26454;51.164;4.488;2023-04-25T13:27:52;3.25;;;1.73;;
40745;SDS011;26454;51.164;4.488;2023-04-25T13:30:19;6.22;;;1.67;;
40745;SDS011;26454;51.164;4.488;2023-04-25T13:32:45;6.43;;;1.52;;
40745;SDS011;26454;51.164;4.488;2023-04-25T13:35:12;7.55;;;1.60;;
40745;SDS011;26454;51.164;4.488;2023-04-25T13:37:41;6.07;;;1.65;;
40745;SDS011;26454;51.164;4.488;2023-04-25T13:40:08;6.45;;;1.70;;
40745;SDS011;26454;51.164;4.488;2023-04-25T13:42:36;6.60;;;1.60;;
40745;SDS011;26454;51.164;4.488;2023-04-25T13:45:02;11.70;;;2.05;;
40745;SDS011;26454;51.164;4.488;2023-04-25T13:47:29;4.88;;;1.48;;
40745;SDS011;26454;51.164;4.488;2023-04-25T13:49:56;8.40;;;1.60;;
40745;SDS011;26454;51.164;4.488;2023-04-25T13:52:25;12.38;;;1.90;;
40745;SDS011;26454;51.164;4.488;2023-04-25T13:54:55;9.32;;;1.83;;
40745;SDS011;26454;51.164;4.488;2023-04-25T13:57:21;3.00;;;1.45;;
40745;SDS011;26454;51.164;4.488;2023-04-25T13:59:48;7.63;;;2.28;;
40745;SDS011;26454;51.164;4.488;2023-04-25T14:02:14;6.43;;;2.65;;
40745;SDS011;26454;51.164;4.488;2023-04-25T14:04:41;3.97;;;1.90;;
40745;SDS011;26454;51.164;4.488;2023-04-25T14:07:07;5.00;;;2.33;;
40745;SDS011;26454;51.164;4.488;2023-04-25T14:09:36;5.75;;;2.63;;
40745;SDS011;26454;51.164;4.488;2023-04-25T14:12:03;4.65;;;1.70;;
40745;SDS011;26454;51.164;4.488;2023-04-25T14:14:29;6.97;;;1.90;;
40745;SDS011;26454;51.164;4.488;2023-04-25T14:16:58;7.18;;;1.60;;
40745;SDS011;26454;51.164;4.488;2023-04-25T14:19:24;4.18;;;1.85;;
40745;SDS011;26454;51.164;4.488;2023-04-25T14:21:51;8.40;;;2.15;;
40745;SDS011;26454;51.164;4.488;2023-04-25T14:24:20;6.80;;;2.35;;
40745;SDS011;26454;51.164;4.488;2023-04-25T14:26:49;9.93;;;1.77;;
40745;SDS011;26454;51.164;4.488;2023-04-25T14:29:15;10.07;;;2.20;;
40745;SDS011;26454;51.164;4.488;2023-04-25T14:31:41;8.20;;;2.08;;
40745;SDS011;26454;51.164;4.488;2023-04-25T14:34:07;4.65;;;1.33;;
40745;SDS011;26454;51.164;4.488;2023-04-25T14:36:35;7.97;;;1.23;;
40745;SDS011;26454;51.164;4.488;2023-04-25T14:39:02;5.55;;;1.75;;
40745;SDS011;26454;51.164;4.488;2023-04-25T14:41:29;6.22;;;1.35;;
40745;SDS011;26454;51.164;4.488;2023-04-25T14:44:01;5.17;;;1.67;;
40745;SDS011;26454;51.164;4.488;2023-04-25T14:46:30;6.47;;;1.50;;
40745;SDS011;26454;51.164;4.488;2023-04-25T14:48:57;3.65;;;1.35;;
40745;SDS011;26454;51.164;4.488;2023-04-25T14:51:23;6.38;;;1.63;;
40745;SDS011;26454;51.164;4.488;2023-04-25T14:53:49;5.35;;;1.23;;
40745;SDS011;26454;51.164;4.488;2023-04-25T14:56:15;8.68;;;1.80;;